createdAt,value
2022-09-29T00:02:04.098Z,7.80
2022-09-29T00:06:31.553Z,7.70
2022-09-29T00:10:44.007Z,7.70
2022-09-29T00:15:13.993Z,7.70
2022-09-29T00:19:16.374Z,7.60
2022-09-29T00:23:18.502Z,7.60
2022-09-29T00:27:37.113Z,7.60
2022-09-29T00:31:39.460Z,7.50
2022-09-29T00:36:02.683Z,7.50
2022-09-29T00:40:06.605Z,7.50
2022-09-29T00:44:47.282Z,7.50
2022-09-29T00:48:49.724Z,7.50
2022-09-29T00:52:56.063Z,7.50
2022-09-29T00:56:59.620Z,7.50
2022-09-29T01:01:18.141Z,7.50
2022-09-29T01:05:27.737Z,7.50
2022-09-29T01:09:35.243Z,7.50
2022-09-29T01:13:38.443Z,7.50
2022-09-29T01:17:40.538Z,7.50
2022-09-29T01:21:45.423Z,7.50
2022-09-29T01:25:54.653Z,7.50
2022-09-29T01:30:20.704Z,7.40
2022-09-29T01:34:51.168Z,7.40
2022-09-29T01:39:18.840Z,7.40
2022-09-29T01:43:26.120Z,7.40
2022-09-29T01:47:54.748Z,7.40
2022-09-29T01:52:13.590Z,7.40
2022-09-29T01:56:40.269Z,7.30
2022-09-29T02:00:51.740Z,7.30
2022-09-29T02:04:59.859Z,7.30
2022-09-29T02:09:05.393Z,7.30
2022-09-29T02:13:15.699Z,7.30
2022-09-29T02:18:05.657Z,7.20
2022-09-29T02:22:36.150Z,7.20
2022-09-29T02:26:56.645Z,7.20
2022-09-29T02:30:59.364Z,7.20
2022-09-29T02:35:12.210Z,7.20
2022-09-29T02:39:36.160Z,7.20
2022-09-29T02:44:30.246Z,7.20
2022-09-29T02:49:12.928Z,7.20
2022-09-29T02:53:29.926Z,7.20
2022-09-29T02:57:59.971Z,7.20
2022-09-29T03:02:27.366Z,7.10
2022-09-29T03:06:29.585Z,7.10
2022-09-29T03:10:31.477Z,7.20
2022-09-29T03:15:23.776Z,7.10
2022-09-29T03:19:54.053Z,7.10
2022-09-29T03:24:02.297Z,7.10
2022-09-29T03:28:04.415Z,7.00
2022-09-29T03:32:06.780Z,6.90
2022-09-29T03:36:34.199Z,6.90
2022-09-29T03:41:04.535Z,6.90
2022-09-29T03:45:07.469Z,6.80
2022-09-29T03:49:28.419Z,6.80
2022-09-29T03:53:57.045Z,6.80
2022-09-29T03:57:59.414Z,6.80
2022-09-29T04:02:01.619Z,6.80
2022-09-29T04:06:23.657Z,6.90
2022-09-29T04:10:27.740Z,6.90
2022-09-29T04:14:57.823Z,6.90
2022-09-29T04:19:00.085Z,6.90
2022-09-29T04:23:01.959Z,6.80
2022-09-29T04:27:04.240Z,6.80
2022-09-29T04:31:06.886Z,6.80
2022-09-29T04:35:09.390Z,6.80
2022-09-29T04:39:24.774Z,6.70
2022-09-29T04:43:26.846Z,6.70
2022-09-29T04:47:48.378Z,6.70
2022-09-29T04:51:50.482Z,6.60
2022-09-29T04:55:56.840Z,6.60
2022-09-29T05:00:26.220Z,6.70
2022-09-29T05:04:28.197Z,6.70
2022-09-29T05:08:57.020Z,6.70
2022-09-29T05:12:59.186Z,6.80
2022-09-29T05:17:01.618Z,6.80
2022-09-29T05:21:27.039Z,6.80
2022-09-29T05:25:31.333Z,6.90
2022-09-29T05:29:49.842Z,6.90
2022-09-29T05:33:52.121Z,7.00
2022-09-29T05:38:16.696Z,7.10
2022-09-29T05:42:44.056Z,7.10
2022-09-29T05:46:50.351Z,7.20
2022-09-29T05:50:52.392Z,7.30
2022-09-29T05:54:54.276Z,7.30
2022-09-29T05:59:06.561Z,7.40
2022-09-29T06:03:08.822Z,7.50
2022-09-29T06:07:30.622Z,7.50
2022-09-29T06:11:38.390Z,7.60
2022-09-29T06:16:21.143Z,7.70
2022-09-29T06:20:24.680Z,7.80
2022-09-29T06:24:43.271Z,7.90
2022-09-29T06:28:48.069Z,7.90
2022-09-29T06:32:51.058Z,7.90
2022-09-29T06:37:13.233Z,8.00
2022-09-29T06:41:15.466Z,8.00
2022-09-29T06:45:21.508Z,8.10
2022-09-29T06:49:25.815Z,8.20
2022-09-29T06:54:21.665Z,8.40
2022-09-29T06:58:28.340Z,8.50
2022-09-29T07:03:05.688Z,8.60
2022-09-29T07:07:32.781Z,8.70
2022-09-29T07:11:41.082Z,8.80
2022-09-29T07:15:44.573Z,8.90
2022-09-29T07:19:47.146Z,8.90
2022-09-29T07:29:33.062Z,9.00
2022-09-29T07:33:39.167Z,9.00
2022-09-29T07:37:41.671Z,9.20
2022-09-29T07:42:07.233Z,9.30
2022-09-29T07:46:11.501Z,9.10
2022-09-29T07:50:23.974Z,9.00
2022-09-29T07:55:16.199Z,8.90
2022-09-29T07:59:18.335Z,8.90
2022-09-29T08:03:20.261Z,9.10
2022-09-29T08:07:24.424Z,9.20
2022-09-29T08:11:31.502Z,9.20
2022-09-29T08:15:33.943Z,9.10
2022-09-29T08:19:49.315Z,9.10
2022-09-29T08:23:51.310Z,9.30
2022-09-29T08:33:50.585Z,10.00
2022-09-29T08:37:55.262Z,10.30
2022-09-29T08:42:16.993Z,10.50
2022-09-29T08:46:35.937Z,10.70
2022-09-29T08:50:56.665Z,10.90
2022-09-29T08:55:44.478Z,11.00
2022-09-29T09:00:11.438Z,11.30
2022-09-29T09:04:31.172Z,11.60
2022-09-29T09:09:10.575Z,11.50
2022-09-29T09:14:00.104Z,11.70
2022-09-29T09:18:27.821Z,12.10
2022-09-29T09:22:50.480Z,12.40
2022-09-29T09:26:52.700Z,12.60
2022-09-29T09:30:59.514Z,12.50
2022-09-29T09:35:23.306Z,12.60
2022-09-29T09:39:31.859Z,12.40
2022-09-29T09:44:00.106Z,12.40
2022-09-29T09:48:17.264Z,12.30
2022-09-29T09:52:51.914Z,12.60
2022-09-29T10:02:51.485Z,12.70
2022-09-29T10:06:53.815Z,12.70
2022-09-29T10:10:59.102Z,12.60
2022-09-29T10:15:57.343Z,12.80
2022-09-29T10:24:28.370Z,13.70
2022-09-29T10:28:47.379Z,14.10
2022-09-29T10:33:17.250Z,14.30
2022-09-29T10:37:38.240Z,14.30
2022-09-29T10:42:32.100Z,14.40
2022-09-29T10:46:51.734Z,14.70
2022-09-29T10:51:05.659Z,14.90
2022-09-29T10:55:19.394Z,14.50
2022-09-29T10:59:29.813Z,14.00
2022-09-29T11:04:06.645Z,13.50
2022-09-29T11:08:52.243Z,13.40
2022-09-29T11:13:46.673Z,13.30
2022-09-29T11:17:51.415Z,13.10
2022-09-29T11:22:47.199Z,12.70
2022-09-29T11:27:46.027Z,12.30
2022-09-29T11:32:17.667Z,12.00
2022-09-29T11:37:03.013Z,11.80
2022-09-29T11:41:35.231Z,11.60
2022-09-29T11:46:27.861Z,11.60
2022-09-29T11:50:53.646Z,11.90
2022-09-29T11:55:45.456Z,12.30
2022-09-29T12:00:12.498Z,12.50
2022-09-29T12:04:49.980Z,12.70
2022-09-29T12:09:39.410Z,12.70
2022-09-29T12:14:16.219Z,12.90
2022-09-29T12:19:08.669Z,13.10
2022-09-29T12:23:14.533Z,13.10
2022-09-29T12:27:27.975Z,13.10
2022-09-29T12:31:45.731Z,13.20
2022-09-29T12:35:51.163Z,13.20
2022-09-29T12:40:22.815Z,13.40
2022-09-29T12:44:38.642Z,13.40
2022-09-29T12:49:34.789Z,13.10
2022-09-29T12:54:11.156Z,13.20
2022-09-29T12:58:31.687Z,13.00
2022-09-29T13:02:52.573Z,12.80
2022-09-29T13:07:47.636Z,12.50
2022-09-29T13:11:55.821Z,12.50
2022-09-29T13:17:07.520Z,12.60
2022-09-29T13:21:37.430Z,12.80
2022-09-29T13:25:58.449Z,13.10
2022-09-29T13:30:13.168Z,13.30
2022-09-29T13:34:40.233Z,13.60
2022-09-29T13:38:48.695Z,14.00
2022-09-29T13:42:55.844Z,14.20
2022-09-29T13:47:34.044Z,14.00
2022-09-29T13:57:51.773Z,13.00
2022-09-29T14:01:57.598Z,13.00
2022-09-29T14:10:52.175Z,12.50
2022-09-29T14:15:00.470Z,12.50
2022-09-29T14:19:10.951Z,12.30
2022-09-29T14:24:03.884Z,12.30
2022-09-29T14:28:18.568Z,12.30
2022-09-29T14:33:02.294Z,12.20
2022-09-29T14:37:04.680Z,12.20
2022-09-29T14:41:07.957Z,12.00
2022-09-29T14:45:34.839Z,11.80
2022-09-29T14:55:16.411Z,11.60
2022-09-29T15:00:01.243Z,11.60
2022-09-29T15:04:15.795Z,11.60
2022-09-29T15:08:27.486Z,11.60
2022-09-29T15:13:13.790Z,11.60
2022-09-29T15:17:48.771Z,11.60
2022-09-29T15:22:19.189Z,11.50
2022-09-29T15:26:21.533Z,11.50
2022-09-29T15:30:24.353Z,11.40
2022-09-29T15:34:31.588Z,11.30
2022-09-29T15:38:38.473Z,11.20
2022-09-29T15:42:42.973Z,11.10
2022-09-29T15:46:50.300Z,11.00
2022-09-29T15:50:59.251Z,11.00
2022-09-29T15:55:02.582Z,10.80
2022-09-29T15:59:18.237Z,10.70
2022-09-29T16:03:33.046Z,10.60
2022-09-29T16:07:41.405Z,10.60
2022-09-29T16:11:43.545Z,10.40
2022-09-29T16:21:23.797Z,10.20
2022-09-29T16:25:29.499Z,10.10
2022-09-29T16:29:36.770Z,10.10
2022-09-29T16:33:45.652Z,10.00
2022-09-29T16:37:47.738Z,10.00
2022-09-29T16:42:20.052Z,9.80
2022-09-29T16:46:25.589Z,9.80
2022-09-29T16:50:28.052Z,9.70
2022-09-29T16:54:33.875Z,9.60
2022-09-29T16:58:46.545Z,9.60
2022-09-29T17:02:56.200Z,9.50
2022-09-29T17:06:58.391Z,9.50
2022-09-29T17:11:01.448Z,9.40
2022-09-29T17:15:26.472Z,9.40
2022-09-29T17:19:28.798Z,9.40
2022-09-29T17:23:33.093Z,9.40
2022-09-29T17:34:07.790Z,9.30
2022-09-29T17:38:14.720Z,9.30
2022-09-29T17:42:17.736Z,9.20
2022-09-29T17:46:20.817Z,9.20
2022-09-29T17:50:26.138Z,9.30
2022-09-29T17:54:28.352Z,9.20
2022-09-29T17:58:39.643Z,9.20
2022-09-29T18:02:42.928Z,9.20
2022-09-29T18:06:52.047Z,9.20
2022-09-29T18:11:02.040Z,9.20
2022-09-29T18:15:06.811Z,9.20
2022-09-29T18:19:28.335Z,9.20
2022-09-29T18:23:31.355Z,9.10
2022-09-29T18:27:33.452Z,9.10
2022-09-29T18:32:26.617Z,9.10
2022-09-29T18:36:28.893Z,9.10
2022-09-29T18:40:31.299Z,9.10
2022-09-29T18:44:34.174Z,9.10
2022-09-29T18:49:04.019Z,9.00
2022-09-29T18:53:07.289Z,9.00
2022-09-29T18:57:12.566Z,9.00
2022-09-29T19:01:33.522Z,9.00
2022-09-29T19:05:37.018Z,9.00
2022-09-29T19:09:39.344Z,9.00
2022-09-29T19:13:43.772Z,9.00
2022-09-29T19:17:56.478Z,9.00
2022-09-29T19:22:00.818Z,8.90
2022-09-29T19:26:22.009Z,8.90
2022-09-29T19:30:50.310Z,8.90
2022-09-29T19:34:54.000Z,8.90
2022-09-29T19:39:01.836Z,9.00
2022-09-29T19:43:29.082Z,8.90
2022-09-29T19:47:57.513Z,8.90
2022-09-29T19:52:01.777Z,8.90
2022-09-29T19:56:11.111Z,8.90
2022-09-29T20:00:16.458Z,8.90
2022-09-29T20:04:29.761Z,8.90
2022-09-29T20:08:35.115Z,8.90
2022-09-29T20:13:04.011Z,8.90
2022-09-29T20:17:13.498Z,8.90
2022-09-29T20:21:44.623Z,8.90
2022-09-29T20:25:46.761Z,8.80
2022-09-29T20:29:52.359Z,8.90
2022-09-29T20:33:54.419Z,8.90
2022-09-29T20:37:56.491Z,8.90
2022-09-29T20:42:00.772Z,8.90
2022-09-29T20:46:31.321Z,8.90
2022-09-29T20:50:45.115Z,8.90
2022-09-29T20:54:48.358Z,8.80
2022-09-29T20:59:00.852Z,8.80
2022-09-29T21:03:05.984Z,8.80
2022-09-29T21:07:33.433Z,8.80
2022-09-29T21:11:43.695Z,8.90
2022-09-29T21:16:13.348Z,8.80
2022-09-29T21:20:15.560Z,8.70
2022-09-29T21:24:17.731Z,8.70
2022-09-29T21:28:23.473Z,8.70
2022-09-29T21:33:35.502Z,8.80
2022-09-29T21:37:37.726Z,8.70
2022-09-29T21:41:49.046Z,8.70
2022-09-29T21:45:52.155Z,8.70
2022-09-29T21:49:56.461Z,8.70
2022-09-29T21:54:01.406Z,8.60
2022-09-29T21:58:03.524Z,8.60
2022-09-29T22:02:05.907Z,8.70
2022-09-29T22:06:22.303Z,8.70
2022-09-29T22:10:24.649Z,8.70
2022-09-29T22:14:26.807Z,8.70
2022-09-29T22:18:40.868Z,8.70
2022-09-29T22:22:45.045Z,8.70
2022-09-29T22:26:46.952Z,8.60
2022-09-29T22:31:09.805Z,8.60
2022-09-29T22:36:19.229Z,8.60
2022-09-29T22:41:29.370Z,8.60
2022-09-29T22:46:21.875Z,8.70
2022-09-29T22:50:26.027Z,8.70
2022-09-29T22:54:44.610Z,8.70
2022-09-29T22:58:50.193Z,8.60
2022-09-29T23:02:52.307Z,8.60
2022-09-29T23:06:54.493Z,8.60
2022-09-29T23:11:17.861Z,8.60
2022-09-29T23:15:24.210Z,8.50
2022-09-29T23:19:31.213Z,8.50
2022-09-29T23:24:01.549Z,8.50
2022-09-29T23:28:15.819Z,8.40
2022-09-29T23:32:18.960Z,8.30
2022-09-29T23:36:21.649Z,8.40
2022-09-29T23:40:55.211Z,8.40
2022-09-29T23:45:01.527Z,8.30
2022-09-29T23:49:15.536Z,8.20
2022-09-29T23:53:17.471Z,8.20
2022-09-29T23:57:19.252Z,8.10
